sensor_id;sensor_type;location;lat;lon;timestamp;P1;durP1;ratioP1;P2;durP2;ratioP2
25049;SDS011;13046;49.814;9.918;2022-09-09T00:00:17;2.67;;;1.95;;
25049;SDS011;13046;49.814;9.918;2022-09-09T00:02:49;4.20;;;2.22;;
25049;SDS011;13046;49.814;9.918;2022-09-09T00:05:19;3.58;;;1.95;;
25049;SDS011;13046;49.814;9.918;2022-09-09T00:07:53;2.38;;;1.60;;
25049;SDS011;13046;49.814;9.918;2022-09-09T00:15:23;3.08;;;1.25;;
25049;SDS011;13046;49.814;9.918;2022-09-09T00:17:53;3.13;;;1.95;;
25049;SDS011;13046;49.814;9.918;2022-09-09T00:20:28;3.47;;;1.85;;
25049;SDS011;13046;49.814;9.918;2022-09-09T00:23:14;3.22;;;1.83;;
25049;SDS011;13046;49.814;9.918;2022-09-09T00:25:59;4.75;;;2.05;;
25049;SDS011;13046;49.814;9.918;2022-09-09T00:28:28;4.13;;;1.95;;
25049;SDS011;13046;49.814;9.918;2022-09-09T00:30:59;2.60;;;2.13;;
25049;SDS011;13046;49.814;9.918;2022-09-09T00:33:27;3.58;;;2.00;;
25049;SDS011;13046;49.814;9.918;2022-09-09T00:35:55;2.22;;;1.67;;
25049;SDS011;13046;49.814;9.918;2022-09-09T00:38:36;3.20;;;1.92;;
25049;SDS011;13046;49.814;9.918;2022-09-09T00:43:32;5.95;;;1.80;;
25049;SDS011;13046;49.814;9.918;2022-09-09T00:51:35;2.95;;;1.98;;
25049;SDS011;13046;49.814;9.918;2022-09-09T00:56:40;3.35;;;2.15;;
25049;SDS011;13046;49.814;9.918;2022-09-09T01:01:36;5.93;;;2.72;;
25049;SDS011;13046;49.814;9.918;2022-09-09T01:04:15;3.15;;;2.03;;
25049;SDS011;13046;49.814;9.918;2022-09-09T01:06:42;3.53;;;2.15;;
25049;SDS011;13046;49.814;9.918;2022-09-09T01:09:27;5.97;;;2.30;;
25049;SDS011;13046;49.814;9.918;2022-09-09T01:14:38;5.57;;;2.75;;
25049;SDS011;13046;49.814;9.918;2022-09-09T01:17:11;3.35;;;2.15;;
25049;SDS011;13046;49.814;9.918;2022-09-09T01:27:09;6.35;;;2.28;;
25049;SDS011;13046;49.814;9.918;2022-09-09T01:29:36;5.10;;;3.13;;
25049;SDS011;13046;49.814;9.918;2022-09-09T01:32:37;3.90;;;2.28;;
25049;SDS011;13046;49.814;9.918;2022-09-09T01:34:49;3.75;;;2.35;;
25049;SDS011;13046;49.814;9.918;2022-09-09T01:37:15;4.18;;;3.20;;
25049;SDS011;13046;49.814;9.918;2022-09-09T01:39:42;4.57;;;2.50;;
25049;SDS011;13046;49.814;9.918;2022-09-09T01:42:12;2.60;;;2.33;;
25049;SDS011;13046;49.814;9.918;2022-09-09T01:44:40;3.13;;;2.22;;
25049;SDS011;13046;49.814;9.918;2022-09-09T01:47:07;2.53;;;2.08;;
25049;SDS011;13046;49.814;9.918;2022-09-09T01:49:38;4.70;;;3.75;;
25049;SDS011;13046;49.814;9.918;2022-09-09T01:52:12;3.28;;;2.35;;
25049;SDS011;13046;49.814;9.918;2022-09-09T01:54:38;4.22;;;2.28;;
25049;SDS011;13046;49.814;9.918;2022-09-09T02:05:14;2.72;;;2.53;;
25049;SDS011;13046;49.814;9.918;2022-09-09T02:07:46;3.35;;;2.17;;
25049;SDS011;13046;49.814;9.918;2022-09-09T02:10:30;5.50;;;2.63;;
25049;SDS011;13046;49.814;9.918;2022-09-09T02:13:13;3.47;;;2.10;;
25049;SDS011;13046;49.814;9.918;2022-09-09T02:15:45;5.65;;;2.80;;
25049;SDS011;13046;49.814;9.918;2022-09-09T02:18:13;2.53;;;2.03;;
25049;SDS011;13046;49.814;9.918;2022-09-09T02:20:41;4.82;;;2.50;;
25049;SDS011;13046;49.814;9.918;2022-09-09T02:23:09;2.28;;;1.98;;
25049;SDS011;13046;49.814;9.918;2022-09-09T02:25:37;2.67;;;2.47;;
25049;SDS011;13046;49.814;9.918;2022-09-09T02:28:14;4.65;;;2.92;;
25049;SDS011;13046;49.814;9.918;2022-09-09T02:30:40;3.70;;;2.50;;
25049;SDS011;13046;49.814;9.918;2022-09-09T02:33:08;4.57;;;2.08;;
25049;SDS011;13046;49.814;9.918;2022-09-09T02:35:43;3.35;;;2.30;;
25049;SDS011;13046;49.814;9.918;2022-09-09T02:38:10;3.50;;;2.28;;
25049;SDS011;13046;49.814;9.918;2022-09-09T02:40:40;3.00;;;2.28;;
25049;SDS011;13046;49.814;9.918;2022-09-09T02:43:07;3.92;;;2.20;;
25049;SDS011;13046;49.814;9.918;2022-09-09T02:48:43;6.00;;;2.40;;
25049;SDS011;13046;49.814;9.918;2022-09-09T02:51:15;2.72;;;2.40;;
25049;SDS011;13046;49.814;9.918;2022-09-09T02:56:18;4.53;;;2.70;;
25049;SDS011;13046;49.814;9.918;2022-09-09T02:58:47;2.30;;;2.10;;
25049;SDS011;13046;49.814;9.918;2022-09-09T03:01:14;3.53;;;2.90;;
25049;SDS011;13046;49.814;9.918;2022-09-09T03:03:41;3.60;;;2.40;;
25049;SDS011;13046;49.814;9.918;2022-09-09T03:06:10;4.63;;;2.30;;
25049;SDS011;13046;49.814;9.918;2022-09-09T03:08:38;2.92;;;2.20;;
25049;SDS011;13046;49.814;9.918;2022-09-09T03:11:04;2.85;;;2.35;;
25049;SDS011;13046;49.814;9.918;2022-09-09T03:13:33;3.97;;;1.83;;
25049;SDS011;13046;49.814;9.918;2022-09-09T03:15:59;4.07;;;2.63;;
25049;SDS011;13046;49.814;9.918;2022-09-09T03:18:27;3.15;;;2.08;;
25049;SDS011;13046;49.814;9.918;2022-09-09T03:20:54;3.90;;;2.30;;
25049;SDS011;13046;49.814;9.918;2022-09-09T03:23:20;5.47;;;2.10;;
25049;SDS011;13046;49.814;9.918;2022-09-09T03:25:51;2.70;;;2.47;;
25049;SDS011;13046;49.814;9.918;2022-09-09T03:28:22;5.40;;;2.53;;
25049;SDS011;13046;49.814;9.918;2022-09-09T03:30:50;3.42;;;2.40;;
25049;SDS011;13046;49.814;9.918;2022-09-09T03:33:16;3.45;;;2.33;;
25049;SDS011;13046;49.814;9.918;2022-09-09T03:35:45;3.45;;;2.30;;
25049;SDS011;13046;49.814;9.918;2022-09-09T03:38:14;4.70;;;2.30;;
25049;SDS011;13046;49.814;9.918;2022-09-09T03:40:48;2.92;;;2.28;;
25049;SDS011;13046;49.814;9.918;2022-09-09T03:43:14;4.47;;;2.72;;
25049;SDS011;13046;49.814;9.918;2022-09-09T03:45:45;3.10;;;2.65;;
25049;SDS011;13046;49.814;9.918;2022-09-09T03:48:15;2.83;;;2.05;;
25049;SDS011;13046;49.814;9.918;2022-09-09T03:50:45;3.05;;;2.00;;
25049;SDS011;13046;49.814;9.918;2022-09-09T03:53:11;5.10;;;2.40;;
25049;SDS011;13046;49.814;9.918;2022-09-09T03:55:37;3.90;;;3.33;;
25049;SDS011;13046;49.814;9.918;2022-09-09T03:58:03;2.72;;;2.40;;
25049;SDS011;13046;49.814;9.918;2022-09-09T04:00:29;2.80;;;2.60;;
25049;SDS011;13046;49.814;9.918;2022-09-09T04:02:55;3.67;;;2.85;;
25049;SDS011;13046;49.814;9.918;2022-09-09T04:05:22;2.38;;;2.15;;
25049;SDS011;13046;49.814;9.918;2022-09-09T04:07:48;3.47;;;2.63;;
25049;SDS011;13046;49.814;9.918;2022-09-09T04:10:17;2.60;;;1.73;;
25049;SDS011;13046;49.814;9.918;2022-09-09T04:12:43;2.45;;;2.25;;
25049;SDS011;13046;49.814;9.918;2022-09-09T04:15:09;2.90;;;1.98;;
25049;SDS011;13046;49.814;9.918;2022-09-09T04:17:37;2.45;;;2.15;;
25049;SDS011;13046;49.814;9.918;2022-09-09T04:20:03;3.00;;;2.03;;
25049;SDS011;13046;49.814;9.918;2022-09-09T04:22:29;2.70;;;2.05;;
25049;SDS011;13046;49.814;9.918;2022-09-09T04:24:57;2.55;;;2.35;;
25049;SDS011;13046;49.814;9.918;2022-09-09T04:27:23;1.73;;;1.63;;
25049;SDS011;13046;49.814;9.918;2022-09-09T04:29:49;2.30;;;2.10;;
25049;SDS011;13046;49.814;9.918;2022-09-09T04:32:15;2.95;;;1.88;;
25049;SDS011;13046;49.814;9.918;2022-09-09T04:34:42;5.68;;;2.95;;
25049;SDS011;13046;49.814;9.918;2022-09-09T04:37:09;6.55;;;3.13;;
25049;SDS011;13046;49.814;9.918;2022-09-09T04:39:36;2.13;;;2.00;;
25049;SDS011;13046;49.814;9.918;2022-09-09T04:42:02;2.75;;;2.33;;
25049;SDS011;13046;49.814;9.918;2022-09-09T04:44:28;3.70;;;2.15;;
25049;SDS011;13046;49.814;9.918;2022-09-09T04:46:55;4.20;;;2.10;;
25049;SDS011;13046;49.814;9.918;2022-09-09T04:49:21;2.92;;;2.63;;
25049;SDS011;13046;49.814;9.918;2022-09-09T04:51:48;2.95;;;2.30;;
25049;SDS011;13046;49.814;9.918;2022-09-09T04:54:16;5.53;;;2.30;;
25049;SDS011;13046;49.814;9.918;2022-09-09T04:56:43;2.95;;;2.50;;
25049;SDS011;13046;49.814;9.918;2022-09-09T04:59:10;4.15;;;2.42;;
25049;SDS011;13046;49.814;9.918;2022-09-09T05:01:43;7.45;;;2.20;;
25049;SDS011;13046;49.814;9.918;2022-09-09T05:04:10;3.53;;;2.30;;
25049;SDS011;13046;49.814;9.918;2022-09-09T05:06:36;2.53;;;2.33;;
25049;SDS011;13046;49.814;9.918;2022-09-09T05:09:03;3.05;;;2.35;;
25049;SDS011;13046;49.814;9.918;2022-09-09T05:11:30;4.40;;;2.40;;
25049;SDS011;13046;49.814;9.918;2022-09-09T05:14:17;4.82;;;2.85;;
25049;SDS011;13046;49.814;9.918;2022-09-09T05:16:46;5.57;;;2.60;;
25049;SDS011;13046;49.814;9.918;2022-09-09T05:19:13;4.72;;;2.90;;
25049;SDS011;13046;49.814;9.918;2022-09-09T05:21:49;5.32;;;2.40;;
25049;SDS011;13046;49.814;9.918;2022-09-09T05:24:19;5.65;;;1.98;;
25049;SDS011;13046;49.814;9.918;2022-09-09T05:26:50;5.00;;;2.70;;
25049;SDS011;13046;49.814;9.918;2022-09-09T05:29:16;3.50;;;2.42;;
25049;SDS011;13046;49.814;9.918;2022-09-09T05:31:47;5.53;;;2.83;;
25049;SDS011;13046;49.814;9.918;2022-09-09T05:34:17;2.40;;;2.20;;
25049;SDS011;13046;49.814;9.918;2022-09-09T05:36:43;6.80;;;2.80;;
25049;SDS011;13046;49.814;9.918;2022-09-09T05:39:09;3.10;;;2.65;;
25049;SDS011;13046;49.814;9.918;2022-09-09T05:41:37;2.78;;;2.47;;
25049;SDS011;13046;49.814;9.918;2022-09-09T05:44:03;7.55;;;2.72;;
25049;SDS011;13046;49.814;9.918;2022-09-09T05:46:33;7.80;;;2.65;;
25049;SDS011;13046;49.814;9.918;2022-09-09T05:48:59;7.20;;;2.58;;
25049;SDS011;13046;49.814;9.918;2022-09-09T05:51:29;5.45;;;3.15;;
25049;SDS011;13046;49.814;9.918;2022-09-09T05:54:02;5.90;;;3.75;;
25049;SDS011;13046;49.814;9.918;2022-09-09T05:56:31;6.28;;;2.92;;
25049;SDS011;13046;49.814;9.918;2022-09-09T05:58:58;5.35;;;3.65;;
25049;SDS011;13046;49.814;9.918;2022-09-09T06:01:26;4.38;;;3.33;;
25049;SDS011;13046;49.814;9.918;2022-09-09T06:03:57;5.60;;;2.70;;
25049;SDS011;13046;49.814;9.918;2022-09-09T06:06:24;7.50;;;2.90;;
25049;SDS011;13046;49.814;9.918;2022-09-09T06:08:53;7.43;;;2.50;;
25049;SDS011;13046;49.814;9.918;2022-09-09T06:11:26;5.55;;;2.92;;
25049;SDS011;13046;49.814;9.918;2022-09-09T06:13:57;4.32;;;2.53;;
25049;SDS011;13046;49.814;9.918;2022-09-09T06:16:24;4.82;;;2.70;;
25049;SDS011;13046;49.814;9.918;2022-09-09T06:18:52;5.05;;;2.95;;
25049;SDS011;13046;49.814;9.918;2022-09-09T06:23:47;4.00;;;2.08;;
25049;SDS011;13046;49.814;9.918;2022-09-09T06:26:17;6.53;;;2.28;;
25049;SDS011;13046;49.814;9.918;2022-09-09T06:28:46;3.70;;;1.80;;
25049;SDS011;13046;49.814;9.918;2022-09-09T06:31:15;4.53;;;1.42;;
25049;SDS011;13046;49.814;9.918;2022-09-09T06:33:49;3.40;;;1.45;;
25049;SDS011;13046;49.814;9.918;2022-09-09T06:36:38;3.80;;;1.42;;
25049;SDS011;13046;49.814;9.918;2022-09-09T06:39:04;4.32;;;1.52;;
25049;SDS011;13046;49.814;9.918;2022-09-09T06:41:32;2.78;;;2.00;;
25049;SDS011;13046;49.814;9.918;2022-09-09T06:44:00;1.90;;;1.15;;
25049;SDS011;13046;49.814;9.918;2022-09-09T06:46:37;5.40;;;1.83;;
25049;SDS011;13046;49.814;9.918;2022-09-09T06:49:04;3.63;;;1.45;;
25049;SDS011;13046;49.814;9.918;2022-09-09T06:51:34;4.50;;;1.75;;
25049;SDS011;13046;49.814;9.918;2022-09-09T06:54:03;5.15;;;1.50;;
25049;SDS011;13046;49.814;9.918;2022-09-09T06:56:36;2.85;;;1.05;;
25049;SDS011;13046;49.814;9.918;2022-09-09T06:59:10;4.25;;;1.02;;
25049;SDS011;13046;49.814;9.918;2022-09-09T07:01:38;3.55;;;1.15;;
25049;SDS011;13046;49.814;9.918;2022-09-09T07:04:14;5.15;;;1.08;;
25049;SDS011;13046;49.814;9.918;2022-09-09T07:06:44;2.67;;;1.00;;
25049;SDS011;13046;49.814;9.918;2022-09-09T07:09:15;2.60;;;1.20;;
25049;SDS011;13046;49.814;9.918;2022-09-09T07:11:44;2.75;;;1.13;;
25049;SDS011;13046;49.814;9.918;2022-09-09T07:14:14;3.40;;;1.13;;
25049;SDS011;13046;49.814;9.918;2022-09-09T07:16:45;2.33;;;1.52;;
25049;SDS011;13046;49.814;9.918;2022-09-09T07:19:12;1.15;;;1.05;;
25049;SDS011;13046;49.814;9.918;2022-09-09T07:21:40;1.90;;;0.70;;
25049;SDS011;13046;49.814;9.918;2022-09-09T07:24:07;4.57;;;1.63;;
25049;SDS011;13046;49.814;9.918;2022-09-09T07:26:35;4.78;;;1.30;;
25049;SDS011;13046;49.814;9.918;2022-09-09T07:29:02;1.92;;;1.00;;
25049;SDS011;13046;49.814;9.918;2022-09-09T07:31:29;3.70;;;0.73;;
25049;SDS011;13046;49.814;9.918;2022-09-09T07:33:56;1.73;;;0.90;;
25049;SDS011;13046;49.814;9.918;2022-09-09T07:36:29;2.78;;;1.00;;
25049;SDS011;13046;49.814;9.918;2022-09-09T07:38:57;2.72;;;0.70;;
25049;SDS011;13046;49.814;9.918;2022-09-09T07:41:32;1.23;;;0.82;;
25049;SDS011;13046;49.814;9.918;2022-09-09T07:44:03;3.20;;;1.90;;
25049;SDS011;13046;49.814;9.918;2022-09-09T07:46:30;1.48;;;1.17;;
25049;SDS011;13046;49.814;9.918;2022-09-09T07:48:57;4.00;;;1.33;;
25049;SDS011;13046;49.814;9.918;2022-09-09T07:51:34;7.25;;;1.17;;
25049;SDS011;13046;49.814;9.918;2022-09-09T07:54:01;3.40;;;0.90;;
25049;SDS011;13046;49.814;9.918;2022-09-09T07:56:31;6.28;;;1.73;;
25049;SDS011;13046;49.814;9.918;2022-09-09T07:58:57;4.68;;;0.93;;
25049;SDS011;13046;49.814;9.918;2022-09-09T08:01:30;1.13;;;1.00;;
25049;SDS011;13046;49.814;9.918;2022-09-09T08:03:58;1.23;;;0.80;;
25049;SDS011;13046;49.814;9.918;2022-09-09T08:06:32;4.05;;;1.20;;
25049;SDS011;13046;49.814;9.918;2022-09-09T08:09:01;2.17;;;1.23;;
25049;SDS011;13046;49.814;9.918;2022-09-09T08:11:27;5.45;;;1.85;;
25049;SDS011;13046;49.814;9.918;2022-09-09T08:13:54;1.20;;;1.02;;
25049;SDS011;13046;49.814;9.918;2022-09-09T08:16:22;3.47;;;1.00;;
25049;SDS011;13046;49.814;9.918;2022-09-09T08:18:50;2.78;;;0.95;;
25049;SDS011;13046;49.814;9.918;2022-09-09T08:21:18;2.60;;;1.20;;
25049;SDS011;13046;49.814;9.918;2022-09-09T08:23:49;1.73;;;1.63;;
25049;SDS011;13046;49.814;9.918;2022-09-09T08:26:18;3.40;;;1.00;;
25049;SDS011;13046;49.814;9.918;2022-09-09T08:28:49;4.75;;;1.30;;
25049;SDS011;13046;49.814;9.918;2022-09-09T08:31:23;7.13;;;1.70;;
25049;SDS011;13046;49.814;9.918;2022-09-09T08:33:53;4.25;;;1.60;;
25049;SDS011;13046;49.814;9.918;2022-09-09T08:36:21;4.47;;;1.45;;
25049;SDS011;13046;49.814;9.918;2022-09-09T08:38:49;4.20;;;1.02;;
25049;SDS011;13046;49.814;9.918;2022-09-09T08:43:43;4.00;;;1.00;;
25049;SDS011;13046;49.814;9.918;2022-09-09T08:46:17;6.32;;;1.25;;
25049;SDS011;13046;49.814;9.918;2022-09-09T08:51:18;6.88;;;1.40;;
25049;SDS011;13046;49.814;9.918;2022-09-09T08:53:46;4.70;;;1.27;;
25049;SDS011;13046;49.814;9.918;2022-09-09T08:56:16;4.43;;;1.27;;
25049;SDS011;13046;49.814;9.918;2022-09-09T08:58:54;2.47;;;1.27;;
25049;SDS011;13046;49.814;9.918;2022-09-09T09:01:34;3.28;;;1.45;;
25049;SDS011;13046;49.814;9.918;2022-09-09T09:04:13;4.25;;;1.05;;
25049;SDS011;13046;49.814;9.918;2022-09-09T09:09:48;5.72;;;1.00;;
25049;SDS011;13046;49.814;9.918;2022-09-09T09:12:38;5.03;;;1.48;;
25049;SDS011;13046;49.814;9.918;2022-09-09T09:15:18;2.55;;;1.08;;
25049;SDS011;13046;49.814;9.918;2022-09-09T09:17:47;2.33;;;1.75;;
25049;SDS011;13046;49.814;9.918;2022-09-09T09:20:14;6.45;;;1.63;;
25049;SDS011;13046;49.814;9.918;2022-09-09T09:22:44;3.83;;;2.55;;
25049;SDS011;13046;49.814;9.918;2022-09-09T09:30:23;3.90;;;1.30;;
25049;SDS011;13046;49.814;9.918;2022-09-09T09:32:54;3.92;;;1.10;;
25049;SDS011;13046;49.814;9.918;2022-09-09T09:35:23;3.28;;;1.10;;
25049;SDS011;13046;49.814;9.918;2022-09-09T09:37:49;5.55;;;2.38;;
25049;SDS011;13046;49.814;9.918;2022-09-09T09:40:17;2.47;;;0.93;;
25049;SDS011;13046;49.814;9.918;2022-09-09T09:42:57;5.70;;;1.33;;
25049;SDS011;13046;49.814;9.918;2022-09-09T09:45:31;4.88;;;1.38;;
25049;SDS011;13046;49.814;9.918;2022-09-09T09:48:02;4.18;;;1.42;;
25049;SDS011;13046;49.814;9.918;2022-09-09T09:50:31;6.93;;;1.90;;
25049;SDS011;13046;49.814;9.918;2022-09-09T09:52:59;5.15;;;1.40;;
25049;SDS011;13046;49.814;9.918;2022-09-09T09:55:31;3.53;;;1.25;;
25049;SDS011;13046;49.814;9.918;2022-09-09T09:58:01;9.88;;;1.15;;
25049;SDS011;13046;49.814;9.918;2022-09-09T10:00:28;7.88;;;1.70;;
25049;SDS011;13046;49.814;9.918;2022-09-09T10:03:01;3.75;;;1.52;;
25049;SDS011;13046;49.814;9.918;2022-09-09T10:05:38;6.82;;;1.80;;
25049;SDS011;13046;49.814;9.918;2022-09-09T10:08:11;2.40;;;0.85;;
25049;SDS011;13046;49.814;9.918;2022-09-09T10:10:54;4.50;;;0.93;;
25049;SDS011;13046;49.814;9.918;2022-09-09T10:16:27;4.47;;;1.02;;
25049;SDS011;13046;49.814;9.918;2022-09-09T10:19:04;1.92;;;0.98;;
25049;SDS011;13046;49.814;9.918;2022-09-09T10:24:16;6.28;;;1.05;;
25049;SDS011;13046;49.814;9.918;2022-09-09T10:34:53;5.35;;;1.50;;
25049;SDS011;13046;49.814;9.918;2022-09-09T10:37:38;6.72;;;1.70;;
25049;SDS011;13046;49.814;9.918;2022-09-09T10:40:19;5.05;;;1.17;;
25049;SDS011;13046;49.814;9.918;2022-09-09T10:42:56;9.65;;;2.50;;
25049;SDS011;13046;49.814;9.918;2022-09-09T10:45:35;10.73;;;3.55;;
25049;SDS011;13046;49.814;9.918;2022-09-09T10:50:49;3.08;;;0.77;;
25049;SDS011;13046;49.814;9.918;2022-09-09T10:55:48;3.13;;;1.58;;
25049;SDS011;13046;49.814;9.918;2022-09-09T10:58:21;2.20;;;0.90;;
25049;SDS011;13046;49.814;9.918;2022-09-09T11:00:49;5.60;;;1.50;;
25049;SDS011;13046;49.814;9.918;2022-09-09T11:03:18;1.83;;;0.90;;
25049;SDS011;13046;49.814;9.918;2022-09-09T11:05:46;2.90;;;1.27;;
25049;SDS011;13046;49.814;9.918;2022-09-09T11:08:18;3.30;;;1.25;;
25049;SDS011;13046;49.814;9.918;2022-09-09T11:13:30;5.30;;;1.33;;
25049;SDS011;13046;49.814;9.918;2022-09-09T11:16:00;5.45;;;0.88;;
25049;SDS011;13046;49.814;9.918;2022-09-09T11:18:29;2.50;;;0.68;;
25049;SDS011;13046;49.814;9.918;2022-09-09T11:21:02;4.30;;;0.85;;
25049;SDS011;13046;49.814;9.918;2022-09-09T11:23:41;3.78;;;1.00;;
25049;SDS011;13046;49.814;9.918;2022-09-09T11:26:11;1.00;;;0.73;;
25049;SDS011;13046;49.814;9.918;2022-09-09T11:36:56;3.53;;;1.10;;
25049;SDS011;13046;49.814;9.918;2022-09-09T11:44:43;4.40;;;1.00;;
25049;SDS011;13046;49.814;9.918;2022-09-09T11:47:20;2.38;;;0.85;;
25049;SDS011;13046;49.814;9.918;2022-09-09T11:49:47;2.95;;;0.90;;
25049;SDS011;13046;49.814;9.918;2022-09-09T11:58:00;10.10;;;2.25;;
25049;SDS011;13046;49.814;9.918;2022-09-09T12:02:58;5.20;;;1.20;;
25049;SDS011;13046;49.814;9.918;2022-09-09T12:05:24;2.53;;;1.00;;
25049;SDS011;13046;49.814;9.918;2022-09-09T12:08:10;4.65;;;1.58;;
25049;SDS011;13046;49.814;9.918;2022-09-09T12:10:52;2.60;;;1.08;;
25049;SDS011;13046;49.814;9.918;2022-09-09T12:13:20;2.92;;;1.17;;
25049;SDS011;13046;49.814;9.918;2022-09-09T12:15:52;4.85;;;1.27;;
25049;SDS011;13046;49.814;9.918;2022-09-09T12:18:25;11.63;;;2.00;;
25049;SDS011;13046;49.814;9.918;2022-09-09T12:23:32;4.03;;;1.30;;
25049;SDS011;13046;49.814;9.918;2022-09-09T12:26:12;4.38;;;1.80;;
25049;SDS011;13046;49.814;9.918;2022-09-09T12:34:32;4.03;;;1.92;;
25049;SDS011;13046;49.814;9.918;2022-09-09T12:37:05;3.53;;;1.08;;
25049;SDS011;13046;49.814;9.918;2022-09-09T12:39:59;2.88;;;1.20;;
25049;SDS011;13046;49.814;9.918;2022-09-09T12:42:28;4.03;;;1.10;;
25049;SDS011;13046;49.814;9.918;2022-09-09T12:44:58;3.83;;;1.25;;
25049;SDS011;13046;49.814;9.918;2022-09-09T12:50:15;2.35;;;1.00;;
25049;SDS011;13046;49.814;9.918;2022-09-09T12:52:47;3.92;;;1.58;;
25049;SDS011;13046;49.814;9.918;2022-09-09T12:55:19;3.88;;;1.50;;
25049;SDS011;13046;49.814;9.918;2022-09-09T12:57:50;2.97;;;0.90;;
25049;SDS011;13046;49.814;9.918;2022-09-09T13:00:18;5.32;;;1.10;;
25049;SDS011;13046;49.814;9.918;2022-09-09T13:02:51;3.17;;;0.90;;
25049;SDS011;13046;49.814;9.918;2022-09-09T13:05:20;3.05;;;1.10;;
25049;SDS011;13046;49.814;9.918;2022-09-09T13:07:46;1.75;;;0.90;;
25049;SDS011;13046;49.814;9.918;2022-09-09T13:10:13;4.65;;;1.27;;
25049;SDS011;13046;49.814;9.918;2022-09-09T13:12:40;7.28;;;2.22;;
25049;SDS011;13046;49.814;9.918;2022-09-09T13:15:13;2.47;;;0.85;;
25049;SDS011;13046;49.814;9.918;2022-09-09T13:17:51;2.72;;;0.95;;
25049;SDS011;13046;49.814;9.918;2022-09-09T13:20:18;4.25;;;1.05;;
25049;SDS011;13046;49.814;9.918;2022-09-09T13:22:46;2.95;;;1.85;;
25049;SDS011;13046;49.814;9.918;2022-09-09T13:28:00;2.58;;;0.80;;
25049;SDS011;13046;49.814;9.918;2022-09-09T13:35:46;3.30;;;0.50;;
25049;SDS011;13046;49.814;9.918;2022-09-09T13:38:15;4.03;;;1.33;;
25049;SDS011;13046;49.814;9.918;2022-09-09T13:43:28;1.42;;;0.50;;
25049;SDS011;13046;49.814;9.918;2022-09-09T13:51:35;4.95;;;1.25;;
25049;SDS011;13046;49.814;9.918;2022-09-09T13:54:13;2.70;;;0.93;;
25049;SDS011;13046;49.814;9.918;2022-09-09T13:56:41;1.75;;;0.70;;
25049;SDS011;13046;49.814;9.918;2022-09-09T13:59:12;3.75;;;0.80;;
25049;SDS011;13046;49.814;9.918;2022-09-09T14:01:39;3.10;;;0.75;;
25049;SDS011;13046;49.814;9.918;2022-09-09T14:04:05;1.63;;;0.70;;
25049;SDS011;13046;49.814;9.918;2022-09-09T14:06:31;4.00;;;0.82;;
25049;SDS011;13046;49.814;9.918;2022-09-09T14:08:57;4.43;;;1.08;;
25049;SDS011;13046;49.814;9.918;2022-09-09T14:11:24;3.08;;;0.80;;
25049;SDS011;13046;49.814;9.918;2022-09-09T14:13:50;1.30;;;0.63;;
25049;SDS011;13046;49.814;9.918;2022-09-09T14:16:16;1.33;;;0.70;;
25049;SDS011;13046;49.814;9.918;2022-09-09T14:18:42;6.50;;;1.08;;
25049;SDS011;13046;49.814;9.918;2022-09-09T14:21:09;2.05;;;0.82;;
25049;SDS011;13046;49.814;9.918;2022-09-09T14:23:35;4.47;;;1.25;;
25049;SDS011;13046;49.814;9.918;2022-09-09T14:26:01;4.55;;;1.00;;
25049;SDS011;13046;49.814;9.918;2022-09-09T14:28:26;3.17;;;0.90;;
25049;SDS011;13046;49.814;9.918;2022-09-09T14:30:53;3.53;;;1.20;;
25049;SDS011;13046;49.814;9.918;2022-09-09T14:33:19;3.08;;;1.65;;
25049;SDS011;13046;49.814;9.918;2022-09-09T14:35:44;4.20;;;1.55;;
25049;SDS011;13046;49.814;9.918;2022-09-09T14:38:10;3.65;;;0.70;;
25049;SDS011;13046;49.814;9.918;2022-09-09T14:40:36;6.22;;;1.50;;
25049;SDS011;13046;49.814;9.918;2022-09-09T14:43:03;2.78;;;1.10;;
25049;SDS011;13046;49.814;9.918;2022-09-09T14:45:29;2.70;;;1.15;;
25049;SDS011;13046;49.814;9.918;2022-09-09T14:47:55;4.65;;;0.88;;
25049;SDS011;13046;49.814;9.918;2022-09-09T14:50:22;3.95;;;1.02;;
25049;SDS011;13046;49.814;9.918;2022-09-09T14:52:48;2.95;;;0.70;;
25049;SDS011;13046;49.814;9.918;2022-09-09T14:55:15;9.80;;;2.25;;
25049;SDS011;13046;49.814;9.918;2022-09-09T14:57:41;12.38;;;3.72;;
25049;SDS011;13046;49.814;9.918;2022-09-09T15:00:08;9.10;;;2.50;;
25049;SDS011;13046;49.814;9.918;2022-09-09T15:02:36;6.57;;;2.00;;
25049;SDS011;13046;49.814;9.918;2022-09-09T15:05:02;13.07;;;2.58;;
25049;SDS011;13046;49.814;9.918;2022-09-09T15:07:29;7.85;;;2.78;;
25049;SDS011;13046;49.814;9.918;2022-09-09T15:09:56;10.13;;;2.97;;
25049;SDS011;13046;49.814;9.918;2022-09-09T15:12:23;7.00;;;2.25;;
25049;SDS011;13046;49.814;9.918;2022-09-09T15:14:49;9.65;;;1.60;;
25049;SDS011;13046;49.814;9.918;2022-09-09T15:17:15;6.65;;;1.73;;
25049;SDS011;13046;49.814;9.918;2022-09-09T15:19:41;11.43;;;1.95;;
25049;SDS011;13046;49.814;9.918;2022-09-09T15:22:08;7.18;;;1.67;;
25049;SDS011;13046;49.814;9.918;2022-09-09T15:24:34;11.57;;;1.90;;
25049;SDS011;13046;49.814;9.918;2022-09-09T15:27:01;5.07;;;2.13;;
25049;SDS011;13046;49.814;9.918;2022-09-09T15:29:27;4.28;;;1.50;;
25049;SDS011;13046;49.814;9.918;2022-09-09T15:31:54;3.05;;;1.33;;
25049;SDS011;13046;49.814;9.918;2022-09-09T15:34:22;5.00;;;1.90;;
25049;SDS011;13046;49.814;9.918;2022-09-09T15:36:49;4.13;;;1.40;;
25049;SDS011;13046;49.814;9.918;2022-09-09T15:39:15;4.68;;;1.60;;
25049;SDS011;13046;49.814;9.918;2022-09-09T15:41:42;6.13;;;1.70;;
25049;SDS011;13046;49.814;9.918;2022-09-09T15:44:09;5.43;;;1.67;;
25049;SDS011;13046;49.814;9.918;2022-09-09T15:49:07;4.07;;;1.80;;
25049;SDS011;13046;49.814;9.918;2022-09-09T15:51:38;6.68;;;1.30;;
25049;SDS011;13046;49.814;9.918;2022-09-09T15:54:04;3.58;;;1.60;;
25049;SDS011;13046;49.814;9.918;2022-09-09T15:56:31;6.43;;;1.67;;
25049;SDS011;13046;49.814;9.918;2022-09-09T15:58:58;7.85;;;3.63;;
25049;SDS011;13046;49.814;9.918;2022-09-09T16:01:24;5.28;;;1.95;;
25049;SDS011;13046;49.814;9.918;2022-09-09T16:03:50;2.90;;;2.28;;
25049;SDS011;13046;49.814;9.918;2022-09-09T16:06:18;4.45;;;2.30;;
25049;SDS011;13046;49.814;9.918;2022-09-09T16:08:46;3.42;;;1.58;;
25049;SDS011;13046;49.814;9.918;2022-09-09T16:11:16;7.40;;;2.85;;
25049;SDS011;13046;49.814;9.918;2022-09-09T16:13:44;7.45;;;2.70;;
25049;SDS011;13046;49.814;9.918;2022-09-09T16:16:11;3.33;;;1.65;;
25049;SDS011;13046;49.814;9.918;2022-09-09T16:18:57;2.85;;;1.90;;
25049;SDS011;13046;49.814;9.918;2022-09-09T16:21:28;5.32;;;2.85;;
25049;SDS011;13046;49.814;9.918;2022-09-09T16:23:54;4.78;;;2.70;;
25049;SDS011;13046;49.814;9.918;2022-09-09T16:26:21;4.05;;;2.60;;
25049;SDS011;13046;49.814;9.918;2022-09-09T16:28:47;18.50;;;8.82;;
25049;SDS011;13046;49.814;9.918;2022-09-09T16:31:15;8.25;;;5.18;;
25049;SDS011;13046;49.814;9.918;2022-09-09T16:33:42;7.18;;;4.22;;
25049;SDS011;13046;49.814;9.918;2022-09-09T16:36:09;7.78;;;2.20;;
25049;SDS011;13046;49.814;9.918;2022-09-09T16:38:36;8.25;;;2.25;;
25049;SDS011;13046;49.814;9.918;2022-09-09T16:41:02;3.20;;;1.80;;
25049;SDS011;13046;49.814;9.918;2022-09-09T16:43:30;2.60;;;1.48;;
25049;SDS011;13046;49.814;9.918;2022-09-09T16:45:56;3.35;;;1.55;;
25049;SDS011;13046;49.814;9.918;2022-09-09T16:48:22;2.78;;;1.77;;
25049;SDS011;13046;49.814;9.918;2022-09-09T16:50:48;4.03;;;1.75;;
25049;SDS011;13046;49.814;9.918;2022-09-09T16:53:14;3.30;;;1.35;;
25049;SDS011;13046;49.814;9.918;2022-09-09T16:55:41;3.33;;;1.25;;
25049;SDS011;13046;49.814;9.918;2022-09-09T16:58:07;2.70;;;1.33;;
25049;SDS011;13046;49.814;9.918;2022-09-09T17:00:35;3.15;;;1.40;;
25049;SDS011;13046;49.814;9.918;2022-09-09T17:03:02;3.97;;;1.92;;
25049;SDS011;13046;49.814;9.918;2022-09-09T17:05:28;4.03;;;1.88;;
25049;SDS011;13046;49.814;9.918;2022-09-09T17:07:55;5.40;;;2.45;;
25049;SDS011;13046;49.814;9.918;2022-09-09T17:10:24;7.68;;;2.83;;
25049;SDS011;13046;49.814;9.918;2022-09-09T17:12:50;4.93;;;2.13;;